Hlavní strana
METAR-TAF:

METAR-TAF

Letiště :

Curaçao, Nizozemské Antily

zeměpisná šířka: 12-12N, zeměpisná délka: 068-58W, výška: 9 m

Aktuální stav počasí

Zpráva byla vytvořena před 25 minutami, v 19:00 UTC
Jihovýchodní vítr 18 kt
Teplota 31°C
Vlhkost vzduchu 59%
Tlak 1011 hPa
Viditelnost 10 km a více
Skoro jasno ve výšce 2200 ft

METAR: TNCC 061900Z 13018KT 9999 FEW022 31/22 Q1011 NOSIG

Čas: 15:25 (19:25 UTC)

Předpověď počasí

Zpráva byla vytvořena před 2 hodinami a 10 minutami, v 17:15 UTC
Předpověď platná od 06 v 18 UTC do 07 v 18 UTC
Východní vítr 14 kt
Viditelnost 10 km a více
Polojasno ve výšce 2200 ft
Dočasný
od 07 v 04 UTC do 07 v 15 UTC
Oblačno až skoro zataženo ve výšce 1500 ft
Oblačno až skoro zataženo ve výšce 5000 ft

TAF: TNCC 061715Z 0618/0718 10014KT 9999 SCT022 TEMPO 0704/0715 BKN015 BKN050

Stav a předpovědi počasí z více než 4 000 letišť (zprávy METAR a TAF).

Červené a žluté tečky na mapě představují dostupné meteorologické stanice.

Když kurzor umístíte na tečku, zobrazí se název stanice.

Pak kliknutím zobrazíte stav a předpověď počasí.

Chcete-li změnit mapu, kliknutím na zelené tlačítko se znaménkem +mapu přiblížíte, kliknutím na zelené tlačítko se znaménkem – mapu oddálíte a kliknutím na zelené šipky přejdete na sousední mapy.


METAR-TAF: